Time;durP1;ratioP1;P1;durP2;ratioP2;P2;SDS_P1;SDS_P2;PMS_P1;PMS_P2;Temp;Humidity;BMP_temperature;BMP_pressure;BME280_temperature;BME280_humidity;BME280_pressure;Samples;Min_cycle;Max_cycle;Signal;HPM_P1;HPM_P2
2023/03/28 00:00:28;;;;;;;5.30;1.25;;;2.30;99.90;;;;;;6181136;23;20036;-83
2023/03/28 00:02:54;;;;;;;10.43;1.98;;;2.30;99.90;;;;;;6183818;23;20009;-83
2023/03/28 00:05:20;;;;;;;5.20;1.25;;;2.30;99.90;;;;;;6181251;23;20009;-83
2023/03/28 00:07:46;;;;;;;11.27;1.85;;;2.30;99.90;;;;;;6183765;23;20009;-83
2023/03/28 00:10:12;;;;;;;7.95;1.58;;;2.30;99.90;;;;;;6180182;23;20017;-83
2023/03/28 00:12:38;;;;;;;6.40;1.35;;;2.30;99.90;;;;;;6181756;23;20067;-83
2023/03/28 00:15:04;;;;;;;8.63;2.05;;;2.30;99.90;;;;;;6182452;23;20508;-83
2023/03/28 00:17:30;;;;;;;12.15;2.42;;;2.30;99.90;;;;;;6181254;23;20044;-83
2023/03/28 00:19:56;;;;;;;12.68;1.90;;;2.30;99.90;;;;;;6180544;23;20059;-83
2023/03/28 00:22:22;;;;;;;11.57;1.85;;;2.40;99.90;;;;;;6180890;23;20024;-83
2023/03/28 00:24:49;;;;;;;4.72;1.13;;;2.40;99.90;;;;;;6155093;23;20461;-83
2023/03/28 00:27:16;;;;;;;8.38;1.50;;;2.40;99.90;;;;;;6178786;23;20350;-83
2023/03/28 00:29:42;;;;;;;7.43;1.70;;;2.40;99.90;;;;;;6182028;23;20017;-83
2023/03/28 00:32:08;;;;;;;9.70;2.42;;;2.40;99.90;;;;;;6181529;23;20009;-83
2023/03/28 00:34:34;;;;;;;3.80;1.17;;;2.30;99.90;;;;;;6155160;23;20451;-83
2023/03/28 00:37:01;;;;;;;13.07;1.73;;;2.30;99.90;;;;;;6181949;23;20032;-83
2023/03/28 00:39:30;;;;;;;8.80;1.58;;;2.20;99.90;;;;;;6179277;23;20016;-83
2023/03/28 00:42:00;;;;;;;8.60;1.80;;;2.20;99.90;;;;;;6182209;23;20009;-83
2023/03/28 00:44:43;;;;;;;9.88;1.75;;;2.10;99.90;;;;;;6179646;23;20017;-83
2023/03/28 00:47:24;;;;;;;6.32;1.50;;;2.10;99.90;;;;;;6181787;23;20411;-84
2023/03/28 00:49:52;;;;;;;7.87;2.00;;;2.10;99.90;;;;;;6180841;23;20009;-83
2023/03/28 00:52:20;;;;;;;16.02;2.55;;;2.00;99.90;;;;;;6177890;23;20256;-83
2023/03/28 00:54:47;;;;;;;9.95;1.45;;;2.00;99.90;;;;;;6182011;23;20049;-83
2023/03/28 00:57:15;;;;;;;10.48;2.05;;;2.00;99.90;;;;;;6178171;23;20013;-83
2023/03/28 00:59:41;;;;;;;5.93;1.65;;;2.00;99.90;;;;;;6181926;23;20063;-83
2023/03/28 01:02:07;;;;;;;7.85;1.67;;;2.00;99.90;;;;;;6180826;23;20490;-83
2023/03/28 01:04:38;;;;;;;10.60;1.80;;;2.00;99.90;;;;;;6179033;23;20103;-82
2023/03/28 01:07:04;;;;;;;9.05;1.52;;;2.00;99.90;;;;;;6180080;23;20016;-83
2023/03/28 01:09:30;;;;;;;10.77;1.52;;;2.00;99.90;;;;;;6181496;23;20132;-83
2023/03/28 01:11:57;;;;;;;11.18;1.60;;;2.00;99.90;;;;;;6154223;23;20404;-83
2023/03/28 01:14:26;;;;;;;11.52;1.75;;;1.90;99.90;;;;;;6179454;23;20016;-83
2023/03/28 01:16:55;;;;;;;7.35;1.92;;;1.90;99.90;;;;;;6182449;23;20092;-83
2023/03/28 01:19:58;;;;;;;8.23;1.63;;;1.90;99.90;;;;;;6180804;23;20370;-83
2023/03/28 01:22:39;;;;;;;10.80;2.10;;;1.90;99.90;;;;;;6180002;23;20013;-83
2023/03/28 01:25:23;;;;;;;6.90;1.35;;;1.90;99.90;;;;;;6181105;23;20334;-83
2023/03/28 01:27:51;;;;;;;7.95;1.48;;;1.90;99.90;;;;;;6180841;23;20334;-83
2023/03/28 01:30:19;;;;;;;7.18;1.67;;;1.90;99.90;;;;;;6180684;23;20013;-83
2023/03/28 01:33:13;;;;;;;6.78;1.30;;;1.90;99.90;;;;;;6182297;23;20064;-83
2023/03/28 01:35:54;;;;;;;10.30;1.55;;;1.90;99.90;;;;;;6179778;23;20020;-83
2023/03/28 01:38:29;;;;;;;5.90;1.73;;;1.80;99.90;;;;;;6179504;23;20013;-83
2023/03/28 01:41:27;;;;;;;7.82;1.58;;;1.80;99.90;;;;;;6179251;23;20095;-83
2023/03/28 01:44:11;;;;;;;11.57;1.75;;;1.70;99.90;;;;;;6180176;23;20010;-83
2023/03/28 01:47:05;;;;;;;8.55;1.42;;;1.70;99.90;;;;;;6155360;23;20092;-83
2023/03/28 01:49:45;;;;;;;6.35;1.33;;;1.70;99.90;;;;;;6154761;23;20554;-83
2023/03/28 01:52:13;;;;;;;8.85;1.52;;;1.70;99.90;;;;;;6180906;23;20080;-83
2023/03/28 01:55:02;;;;;;;9.27;1.45;;;1.60;99.90;;;;;;6155227;23;20017;-83
2023/03/28 01:57:31;;;;;;;10.57;1.60;;;1.60;99.90;;;;;;6181010;23;20017;-83
2023/03/28 02:00:11;;;;;;;10.35;1.70;;;1.60;99.90;;;;;;6155014;23;20013;-83
2023/03/28 02:03:10;;;;;;;10.93;1.73;;;1.60;99.90;;;;;;6181516;23;20076;-83
2023/03/28 02:05:38;;;;;;;6.85;1.23;;;1.60;99.90;;;;;;6177483;23;20013;-83
2023/03/28 02:08:07;;;;;;;7.28;1.38;;;1.60;99.90;;;;;;6154663;23;20012;-83
2023/03/28 02:10:35;;;;;;;14.15;2.15;;;1.60;99.90;;;;;;6154531;23;20009;-83
2023/03/28 02:13:13;;;;;;;12.02;2.15;;;1.60;99.90;;;;;;6181305;23;20316;-83
2023/03/28 02:15:41;;;;;;;10.07;1.52;;;1.70;99.90;;;;;;6181839;23;20020;-83
2023/03/28 02:18:15;;;;;;;6.50;1.50;;;1.60;99.90;;;;;;6153721;23;20020;-83
2023/03/28 02:20:43;;;;;;;7.88;1.50;;;1.60;99.90;;;;;;6182335;23;20017;-83
2023/03/28 02:23:24;;;;;;;13.30;1.70;;;1.60;99.90;;;;;;6153372;23;20083;-82
2023/03/28 02:25:50;;;;;;;9.63;2.25;;;1.50;99.90;;;;;;6155173;23;20024;-83
2023/03/28 02:28:18;;;;;;;7.22;1.40;;;1.40;99.90;;;;;;6181203;23;20013;-83
2023/03/28 02:30:44;;;;;;;10.40;1.77;;;1.30;99.90;;;;;;6155312;23;20497;-83
2023/03/28 02:33:36;;;;;;;6.70;1.50;;;1.20;99.90;;;;;;6154603;23;20067;-83
2023/03/28 02:36:39;;;;;;;7.75;1.90;;;1.10;99.90;;;;;;6181320;23;20021;-83
2023/03/28 02:39:08;;;;;;;7.80;1.20;;;1.10;99.90;;;;;;6180764;23;20459;-83
2023/03/28 02:42:01;;;;;;;11.48;1.67;;;1.00;99.90;;;;;;6155145;23;20009;-83
2023/03/28 02:44:51;;;;;;;12.80;1.92;;;1.10;99.90;;;;;;6180905;23;20021;-82
2023/03/28 02:47:32;;;;;;;6.50;1.30;;;1.00;99.90;;;;;;6180266;23;20024;-83
2023/03/28 02:50:40;;;;;;;6.20;1.88;;;1.10;99.90;;;;;;6154944;23;20087;-83
2023/03/28 02:53:21;;;;;;;9.18;1.83;;;1.10;99.90;;;;;;6180092;23;20060;-83
2023/03/28 02:55:55;;;;;;;9.50;1.80;;;1.10;99.90;;;;;;6155004;23;20020;-83
2023/03/28 02:58:51;;;;;;;7.82;1.70;;;1.10;99.90;;;;;;6153456;23;20013;-84
2023/03/28 03:01:17;;;;;;;6.57;1.48;;;1.00;99.90;;;;;;6177607;23;20020;-83
2023/03/28 03:03:42;;;;;;;9.00;1.63;;;0.90;99.90;;;;;;6181256;23;20005;-83
2023/03/28 03:06:09;;;;;;;9.70;1.58;;;0.80;99.90;;;;;;6154149;23;20330;-83
2023/03/28 03:08:35;;;;;;;8.55;1.70;;;0.70;99.90;;;;;;6181162;23;20079;-83
2023/03/28 03:11:00;;;;;;;10.10;1.88;;;0.60;99.90;;;;;;6154569;23;20017;-83
2023/03/28 03:13:26;;;;;;;7.25;1.67;;;0.60;99.90;;;;;;6180605;23;20017;-83
2023/03/28 03:15:54;;;;;;;10.00;1.45;;;0.50;99.90;;;;;;6154404;23;20016;-83
2023/03/28 03:18:20;;;;;;;5.97;1.48;;;0.40;99.90;;;;;;6154401;23;20009;-83
2023/03/28 03:20:46;;;;;;;6.10;1.52;;;0.30;99.90;;;;;;6155694;23;20478;-83
2023/03/28 03:23:12;;;;;;;8.52;1.40;;;0.30;99.90;;;;;;6181412;23;20013;-83
2023/03/28 03:25:38;;;;;;;7.68;1.67;;;0.30;99.90;;;;;;6156758;23;20013;-83
2023/03/28 03:28:04;;;;;;;6.22;1.48;;;0.20;99.90;;;;;;6155765;23;20091;-83
2023/03/28 03:30:30;;;;;;;7.82;2.10;;;0.20;99.90;;;;;;6181934;23;20043;-83
2023/03/28 03:32:56;;;;;;;10.82;2.28;;;0.20;99.90;;;;;;6183469;23;20024;-83
2023/03/28 03:35:22;;;;;;;11.80;1.70;;;0.20;99.90;;;;;;6157456;23;20102;-83
2023/03/28 03:37:49;;;;;;;11.43;1.95;;;0.10;99.90;;;;;;6159718;23;20013;-83
2023/03/28 03:40:16;;;;;;;7.60;1.55;;;0.10;99.90;;;;;;6158721;23;20020;-83
2023/03/28 03:42:41;;;;;;;9.98;1.88;;;0.10;99.90;;;;;;6182340;23;20455;-82
2023/03/28 03:45:08;;;;;;;8.82;1.83;;;0.10;99.90;;;;;;6169224;23;20048;-83
2023/03/28 03:47:34;;;;;;;6.07;1.55;;;0.10;99.90;;;;;;6181264;23;20023;-83
2023/03/28 03:49:59;;;;;;;7.38;1.50;;;0.10;99.90;;;;;;6179559;23;20013;-83
2023/03/28 03:52:26;;;;;;;7.63;1.40;;;0.10;99.90;;;;;;6178404;23;20025;-83
2023/03/28 03:54:51;;;;;;;7.40;2.65;;;0.10;99.90;;;;;;6181630;23;20492;-83
2023/03/28 03:57:17;;;;;;;9.40;1.88;;;0.10;99.90;;;;;;6179523;23;20442;-83
2023/03/28 03:59:42;;;;;;;14.05;2.50;;;0.10;99.90;;;;;;6182427;23;20013;-82
2023/03/28 04:02:08;;;;;;;12.32;2.28;;;0.10;99.90;;;;;;6180734;23;20023;-83
2023/03/28 04:04:35;;;;;;;7.70;1.50;;;0.10;99.90;;;;;;6182779;23;20013;-83
2023/03/28 04:07:01;;;;;;;8.30;1.35;;;0.10;99.90;;;;;;6180295;23;20055;-83
2023/03/28 04:09:27;;;;;;;8.65;1.83;;;0.10;99.90;;;;;;6182955;23;20044;-83
2023/03/28 04:11:55;;;;;;;6.68;1.23;;;0.10;99.90;;;;;;6182434;23;20017;-83
2023/03/28 04:14:22;;;;;;;10.60;1.63;;;0.00;99.90;;;;;;6181654;23;20017;-83
2023/03/28 04:16:49;;;;;;;8.80;1.25;;;0.00;99.90;;;;;;6183175;23;20010;-83
2023/03/28 04:19:16;;;;;;;9.38;1.67;;;0.00;99.90;;;;;;6181942;23;20083;-83
2023/03/28 04:21:46;;;;;;;8.40;1.63;;;0.00;99.90;;;;;;6181022;23;20020;-83
2023/03/28 04:24:16;;;;;;;7.30;1.77;;;0.00;99.90;;;;;;6182382;23;20009;-83
2023/03/28 04:26:48;;;;;;;7.07;1.40;;;0.00;99.90;;;;;;6180913;23;20009;-82
2023/03/28 04:29:15;;;;;;;12.93;2.85;;;0.10;99.90;;;;;;6181350;23;20017;-83
2023/03/28 04:31:48;;;;;;;8.20;1.98;;;0.10;99.90;;;;;;6183018;23;20089;-83
2023/03/28 04:34:14;;;;;;;10.73;2.22;;;0.20;99.90;;;;;;6180648;23;20041;-83
2023/03/28 04:36:40;;;;;;;8.20;1.80;;;0.30;99.90;;;;;;6182092;23;20036;-84
2023/03/28 04:39:07;;;;;;;9.40;1.70;;;0.40;99.90;;;;;;6180178;23;20334;-83
2023/03/28 04:41:33;;;;;;;9.50;1.92;;;0.50;99.90;;;;;;6182631;23;20020;-84
2023/03/28 04:43:59;;;;;;;8.70;1.73;;;0.50;99.90;;;;;;6180721;23;20013;-84
2023/03/28 04:46:25;;;;;;;10.20;2.70;;;0.60;99.90;;;;;;6155033;23;20346;-84
2023/03/28 04:48:52;;;;;;;10.10;2.33;;;0.60;99.90;;;;;;6155787;23;20044;-83
2023/03/28 04:51:17;;;;;;;7.20;2.25;;;0.70;99.90;;;;;;6154974;23;20032;-83
2023/03/28 04:53:43;;;;;;;5.43;1.35;;;0.70;99.90;;;;;;6155296;23;20064;-84
2023/03/28 04:56:12;;;;;;;10.73;1.85;;;0.70;99.90;;;;;;6155101;23;20087;-83
2023/03/28 04:58:38;;;;;;;8.40;1.58;;;0.80;99.90;;;;;;6182076;23;20067;-83
2023/03/28 05:01:04;;;;;;;10.77;2.30;;;0.80;99.90;;;;;;6154858;23;20032;-84
2023/03/28 05:03:30;;;;;;;9.70;1.88;;;0.80;99.90;;;;;;6155693;23;20446;-84
2023/03/28 05:05:56;;;;;;;8.55;1.90;;;0.80;99.90;;;;;;6181901;23;20016;-83
2023/03/28 05:08:25;;;;;;;9.90;1.48;;;0.70;99.90;;;;;;6130658;23;20021;-84
2023/03/28 05:10:50;;;;;;;8.98;2.10;;;0.70;99.90;;;;;;6155646;23;20010;-84
2023/03/28 05:13:17;;;;;;;8.07;1.70;;;0.70;99.90;;;;;;6154272;23;20013;-83
2023/03/28 05:15:44;;;;;;;7.70;1.67;;;0.70;99.90;;;;;;6155468;23;20009;-84
2023/03/28 05:18:10;;;;;;;6.93;1.67;;;0.70;99.90;;;;;;6155946;23;20427;-83
2023/03/28 05:20:36;;;;;;;9.18;1.80;;;0.70;99.90;;;;;;6156309;23;20095;-84
2023/03/28 05:23:02;;;;;;;9.65;2.42;;;0.70;99.90;;;;;;6155104;23;20009;-84
2023/03/28 05:25:28;;;;;;;5.43;1.52;;;0.70;99.90;;;;;;6154472;23;20017;-84
2023/03/28 05:27:54;;;;;;;8.77;1.92;;;0.80;99.90;;;;;;6154820;23;20013;-83
2023/03/28 05:30:19;;;;;;;8.98;2.03;;;0.70;99.90;;;;;;6155429;23;20009;-83
2023/03/28 05:32:46;;;;;;;8.48;1.77;;;0.70;99.90;;;;;;6182514;23;20013;-84
2023/03/28 05:35:13;;;;;;;9.18;1.55;;;0.70;99.90;;;;;;6153951;23;20055;-87
2023/03/28 05:37:39;;;;;;;8.65;1.60;;;0.70;99.90;;;;;;6155044;23;20017;-84
2023/03/28 05:40:06;;;;;;;7.05;1.40;;;0.70;99.90;;;;;;6155357;23;20016;-85
2023/03/28 05:42:35;;;;;;;6.70;1.80;;;0.70;99.90;;;;;;6154044;23;20013;-83
2023/03/28 05:45:02;;;;;;;6.28;1.52;;;0.60;99.90;;;;;;6181354;23;20552;-83
2023/03/28 05:47:28;;;;;;;8.10;1.88;;;0.60;99.90;;;;;;6155306;23;20028;-82
2023/03/28 05:49:53;;;;;;;7.40;1.77;;;0.60;99.90;;;;;;6181259;23;20013;-82
2023/03/28 05:52:19;;;;;;;9.70;1.70;;;0.60;99.90;;;;;;6154805;23;20139;-82
2023/03/28 05:54:45;;;;;;;11.93;2.22;;;0.60;99.90;;;;;;6182328;23;20013;-82
2023/03/28 05:57:10;;;;;;;12.48;2.00;;;0.60;99.90;;;;;;6181418;23;20568;-82
2023/03/28 05:59:39;;;;;;;7.53;1.85;;;0.70;99.90;;;;;;6182026;23;20328;-82
2023/03/28 06:02:08;;;;;;;10.07;1.90;;;0.70;99.90;;;;;;6155570;23;20032;-83
2023/03/28 06:04:34;;;;;;;7.00;1.70;;;0.70;99.90;;;;;;6155071;23;20088;-82
2023/03/28 06:07:00;;;;;;;5.78;1.50;;;0.70;99.90;;;;;;6182126;23;20443;-82
2023/03/28 06:09:30;;;;;;;9.68;1.83;;;0.80;99.90;;;;;;6129731;23;20013;-82
2023/03/28 06:11:56;;;;;;;9.98;2.08;;;0.80;99.90;;;;;;6155325;23;20129;-82
2023/03/28 06:14:22;;;;;;;9.10;2.28;;;0.80;99.90;;;;;;6156159;23;20445;-81
2023/03/28 06:16:48;;;;;;;9.23;1.75;;;0.90;99.90;;;;;;6181626;23;20017;-82
2023/03/28 06:19:13;;;;;;;9.25;2.05;;;0.80;99.90;;;;;;6153866;23;20482;-82
2023/03/28 06:21:39;;;;;;;7.65;2.67;;;0.90;99.90;;;;;;6181853;23;20083;-82
2023/03/28 06:24:05;;;;;;;9.07;1.80;;;0.90;99.90;;;;;;6154636;23;20449;-83
2023/03/28 06:26:31;;;;;;;8.50;2.17;;;1.00;99.90;;;;;;6154911;23;20017;-83
2023/03/28 06:28:56;;;;;;;10.57;2.55;;;1.10;99.90;;;;;;6154945;23;20450;-84
2023/03/28 06:31:22;;;;;;;9.80;1.92;;;1.20;99.90;;;;;;6180486;23;20017;-83
2023/03/28 06:33:48;;;;;;;9.20;2.10;;;1.30;99.90;;;;;;6154612;23;20407;-83
2023/03/28 06:36:13;;;;;;;8.43;1.90;;;1.30;99.90;;;;;;6152332;23;20013;-83
2023/03/28 06:38:39;;;;;;;8.70;2.08;;;1.40;99.90;;;;;;6179340;23;20013;-83
2023/03/28 06:41:05;;;;;;;10.43;2.17;;;1.60;99.90;;;;;;6181352;23;20080;-84
2023/03/28 06:43:31;;;;;;;10.18;2.20;;;1.70;99.90;;;;;;6154884;23;20096;-83
2023/03/28 06:45:57;;;;;;;9.05;2.17;;;1.80;99.90;;;;;;6154488;23;20071;-83
2023/03/28 06:48:29;;;;;;;8.52;2.30;;;1.90;99.90;;;;;;6154719;23;20005;-83
2023/03/28 06:50:55;;;;;;;9.10;2.50;;;2.10;99.90;;;;;;6155913;23;20013;-83
2023/03/28 06:53:21;;;;;;;6.65;1.80;;;2.30;99.90;;;;;;6153738;23;20395;-84
2023/03/28 06:55:49;;;;;;;8.77;2.05;;;2.50;99.90;;;;;;6182196;23;20009;-83
2023/03/28 06:58:19;;;;;;;10.93;2.10;;;2.70;99.90;;;;;;6129996;23;20068;-83
2023/03/28 07:00:44;;;;;;;9.13;2.00;;;2.90;99.90;;;;;;6154279;23;20016;-86
2023/03/28 07:03:10;;;;;;;8.32;2.10;;;2.90;99.90;;;;;;6155159;23;20032;-84
2023/03/28 07:05:41;;;;;;;11.55;2.10;;;3.00;99.90;;;;;;6152935;23;20379;-84
2023/03/28 07:08:08;;;;;;;10.25;2.90;;;3.10;99.90;;;;;;6181046;23;20009;-84
2023/03/28 07:10:34;;;;;;;10.13;1.95;;;3.30;99.90;;;;;;6159124;23;20020;-85
2023/03/28 07:13:00;;;;;;;7.75;2.05;;;3.30;99.90;;;;;;6185691;23;20357;-86
2023/03/28 07:15:26;;;;;;;10.10;2.47;;;3.40;99.90;;;;;;6183511;23;20052;-86
2023/03/28 07:17:52;;;;;;;8.13;2.20;;;3.50;99.90;;;;;;6157648;23;20021;-86
2023/03/28 07:20:19;;;;;;;9.18;2.22;;;3.60;99.90;;;;;;6159291;23;20024;-84
2023/03/28 07:22:44;;;;;;;12.52;2.55;;;3.70;99.90;;;;;;6191073;23;20010;-84
2023/03/28 07:25:11;;;;;;;12.10;1.92;;;3.80;99.90;;;;;;6189280;23;20021;-84
2023/03/28 07:27:37;;;;;;;9.43;2.00;;;4.00;99.90;;;;;;6157402;23;20092;-84
2023/03/28 07:30:03;;;;;;;7.18;1.90;;;4.10;99.90;;;;;;6156463;23;20361;-85
2023/03/28 07:32:29;;;;;;;11.63;2.03;;;4.30;99.90;;;;;;6156420;23;20067;-84
2023/03/28 07:34:55;;;;;;;13.50;2.00;;;4.40;99.90;;;;;;6181351;23;20013;-84
2023/03/28 07:37:20;;;;;;;8.60;2.28;;;4.60;99.90;;;;;;6180807;23;20017;-86
2023/03/28 07:39:46;;;;;;;7.65;1.73;;;4.70;99.90;;;;;;6157182;23;20055;-85
2023/03/28 07:42:14;;;;;;;7.97;2.00;;;4.90;99.90;;;;;;6154741;23;20017;-85
2023/03/28 07:44:40;;;;;;;8.80;2.25;;;5.00;99.90;;;;;;6165988;23;20028;-83
2023/03/28 07:47:08;;;;;;;13.18;3.45;;;5.20;99.90;;;;;;6180865;23;20017;-84
2023/03/28 07:49:34;;;;;;;12.52;3.65;;;5.40;99.90;;;;;;6180896;23;20079;-84
2023/03/28 07:52:00;;;;;;;8.32;2.03;;;5.50;99.90;;;;;;6177716;23;20012;-84
2023/03/28 07:54:27;;;;;;;10.05;2.67;;;5.70;99.90;;;;;;6178677;23;20494;-85
2023/03/28 07:56:53;;;;;;;13.63;4.22;;;5.80;99.90;;;;;;6181281;23;20088;-83
2023/03/28 07:59:19;;;;;;;10.13;2.50;;;6.00;99.90;;;;;;6152019;23;20072;-86
2023/03/28 08:01:45;;;;;;;11.75;4.22;;;6.00;99.90;;;;;;6181945;23;20067;-92
2023/03/28 08:04:12;;;;;;;10.93;3.72;;;6.00;99.90;;;;;;6185500;23;20419;-87
2023/03/28 08:06:39;;;;;;;8.95;2.33;;;6.00;99.90;;;;;;6187296;23;20285;-81
2023/03/28 08:09:10;;;;;;;6.75;2.72;;;6.10;99.90;;;;;;6184240;23;20005;-84
2023/03/28 08:11:37;;;;;;;10.60;2.85;;;6.10;99.90;;;;;;6183227;23;20021;-84
2023/03/28 08:14:04;;;;;;;10.80;3.58;;;6.10;99.90;;;;;;6180617;23;20028;-84
2023/03/28 08:16:31;;;;;;;9.70;3.47;;;6.10;99.90;;;;;;6179928;23;20525;-84
2023/03/28 08:18:57;;;;;;;11.63;3.33;;;6.10;99.90;;;;;;6180799;23;20013;-83
2023/03/28 08:21:24;;;;;;;7.78;2.22;;;6.20;99.90;;;;;;6182272;23;20020;-83
2023/03/28 08:23:50;;;;;;;10.93;3.10;;;6.30;99.90;;;;;;6185151;23;20500;-84
2023/03/28 08:26:17;;;;;;;7.63;1.85;;;6.40;99.90;;;;;;6181677;23;20032;-83
2023/03/28 08:28:43;;;;;;;11.38;2.63;;;6.40;99.90;;;;;;6183330;23;20015;-84
2023/03/28 08:31:12;;;;;;;5.75;1.83;;;6.40;99.90;;;;;;6179872;23;20013;-83
2023/03/28 08:33:50;;;;;;;10.25;3.17;;;6.40;99.90;;;;;;6181477;23;20378;-84
2023/03/28 08:36:16;;;;;;;9.80;3.22;;;6.40;99.90;;;;;;6179738;23;20020;-84
2023/03/28 08:38:43;;;;;;;6.93;1.75;;;6.40;99.90;;;;;;6182350;23;20461;-83
2023/03/28 08:41:28;;;;;;;6.15;1.58;;;6.50;99.90;;;;;;6180662;23;20384;-84
2023/03/28 08:44:05;;;;;;;8.02;2.42;;;6.50;99.90;;;;;;6180846;23;20028;-83
2023/03/28 08:46:34;;;;;;;8.32;1.98;;;6.50;99.90;;;;;;6179787;23;20017;-84
2023/03/28 08:49:05;;;;;;;7.75;1.92;;;6.60;99.90;;;;;;6179348;23;20013;-84
2023/03/28 08:51:37;;;;;;;10.68;2.70;;;6.60;99.90;;;;;;6182220;23;20091;-84
2023/03/28 08:54:30;;;;;;;8.38;2.20;;;6.60;99.90;;;;;;6155330;23;20119;-86
2023/03/28 08:56:57;;;;;;;10.68;1.90;;;6.60;99.90;;;;;;6183562;23;20021;-87
2023/03/28 08:59:46;;;;;;;8.95;2.22;;;6.50;99.90;;;;;;6156012;23;20052;-85
2023/03/28 09:02:25;;;;;;;10.18;2.50;;;6.60;99.90;;;;;;6153922;23;20013;-85
2023/03/28 09:04:52;;;;;;;9.43;2.30;;;6.70;99.90;;;;;;6182023;23;20407;-86
2023/03/28 09:07:56;;;;;;;6.30;1.80;;;6.90;99.90;;;;;;6179679;23;20496;-84
2023/03/28 09:10:26;;;;;;;8.15;2.08;;;7.00;99.90;;;;;;6181497;23;20013;-84
2023/03/28 09:13:26;;;;;;;5.45;1.95;;;7.00;99.90;;;;;;6155565;23;20088;-84
2023/03/28 09:16:07;;;;;;;10.23;2.85;;;7.10;99.90;;;;;;6181618;23;20017;-84
2023/03/28 09:18:59;;;;;;;6.68;1.65;;;7.30;99.90;;;;;;6130470;23;20025;-86
2023/03/28 09:21:46;;;;;;;6.93;2.15;;;7.50;99.90;;;;;;6181992;23;20073;-85
2023/03/28 09:24:30;;;;;;;7.45;2.10;;;7.60;99.90;;;;;;6154703;23;20063;-85
2023/03/28 09:27:11;;;;;;;9.20;2.08;;;7.60;99.90;;;;;;6182555;23;20016;-85
2023/03/28 09:29:38;;;;;;;;;;;7.70;99.90;;;;;;6156092;23;20008;-85
2023/03/28 09:32:23;;;;;;;5.72;1.95;;;7.50;99.90;;;;;;6155185;23;19912;-85
2023/03/28 09:34:50;;;;;;;7.10;1.80;;;7.50;99.90;;;;;;6156049;23;20013;-85
2023/03/28 09:37:29;;;;;;;8.75;2.30;;;7.60;99.90;;;;;;6155280;23;20017;-88
2023/03/28 09:40:13;;;;;;;6.97;1.63;;;7.60;99.90;;;;;;6182837;23;20013;-86
2023/03/28 09:43:17;;;;;;;7.57;1.90;;;7.50;99.90;;;;;;6155492;23;20013;-85
2023/03/28 09:45:59;;;;;;;6.57;1.42;;;7.40;99.90;;;;;;6176979;23;20017;-89
2023/03/28 09:48:30;;;;;;;6.50;1.70;;;7.50;99.90;;;;;;6181251;23;20632;-88
2023/03/28 09:51:00;;;;;;;7.28;2.00;;;7.70;99.90;;;;;;6182247;23;20035;-87
2023/03/28 09:53:34;;;;;;;5.60;1.77;;;7.80;99.90;;;;;;6181784;23;20025;-87
2023/03/28 09:56:04;;;;;;;5.57;1.73;;;7.90;99.90;;;;;;6182257;23;20398;-87
2023/03/28 09:58:51;;;;;;;5.70;1.13;;;8.00;99.90;;;;;;6182171;23;20382;-87
2023/03/28 10:01:24;;;;;;;6.72;1.40;;;8.20;99.90;;;;;;6182208;23;20100;-88
2023/03/28 10:03:53;;;;;;;6.78;1.95;;;8.20;99.90;;;;;;6183031;23;20017;-89
2023/03/28 10:06:30;;;;;;;6.15;1.88;;;8.20;99.90;;;;;;6182246;23;20051;-88
2023/03/28 10:09:19;;;;;;;7.03;1.70;;;8.00;99.90;;;;;;6181718;23;20071;-90
2023/03/28 10:11:53;;;;;;;4.53;1.33;;;8.10;99.90;;;;;;6182425;23;20338;-88
2023/03/28 10:14:42;;;;;;;6.95;1.60;;;8.20;99.90;;;;;;6156835;23;20065;-90
2023/03/28 10:17:18;;;;;;;5.35;1.40;;;8.20;99.90;;;;;;6155970;23;20009;-88
2023/03/28 10:19:46;;;;;;;6.32;1.65;;;8.10;99.90;;;;;;6183760;23;20020;-91
2023/03/28 10:22:19;;;;;;;7.45;1.65;;;8.00;99.90;;;;;;6182731;23;20020;-89
2023/03/28 10:24:46;;;;;;;6.22;1.77;;;8.00;99.90;;;;;;6182074;23;20032;-86
2023/03/28 10:27:31;;;;;;;6.93;1.65;;;7.90;99.90;;;;;;6183245;23;20195;-89
2023/03/28 10:30:07;;;;;;;4.28;1.38;;;8.00;99.90;;;;;;6190785;23;20327;-90
2023/03/28 10:32:33;;;;;;;7.32;1.80;;;8.10;99.90;;;;;;6185051;23;20048;-87
2023/03/28 10:35:19;;;;;;;5.70;1.55;;;8.10;99.90;;;;;;6184082;23;20024;-91
2023/03/28 10:37:48;;;;;;;5.78;1.88;;;8.10;99.90;;;;;;6159471;23;20386;-88
2023/03/28 10:40:17;;;;;;;7.95;2.22;;;7.90;99.90;;;;;;6194859;23;20064;-88
2023/03/28 10:42:44;;;;;;;7.65;1.67;;;8.00;99.90;;;;;;6190054;23;20035;-90
2023/03/28 10:45:35;;;;;;;6.43;1.88;;;8.00;99.90;;;;;;6183816;23;20048;-89
2023/03/28 10:48:11;;;;;;;7.55;1.30;;;8.10;99.90;;;;;;6183205;23;20024;-88
2023/03/28 10:50:44;;;;;;;6.68;2.17;;;8.00;99.90;;;;;;6156937;23;20017;-86
2023/03/28 10:53:51;;;;;;;8.15;2.10;;;8.10;99.90;;;;;;6159281;23;20013;-86
2023/03/28 10:56:37;;;;;;;6.82;2.00;;;8.30;99.90;;;;;;6188274;23;20013;-88
2023/03/28 10:59:20;;;;;;;7.65;2.30;;;8.60;99.90;;;;;;6191016;23;20295;-88
2023/03/28 11:01:58;;;;;;;10.82;2.58;;;8.70;99.90;;;;;;6165772;23;20013;-87
2023/03/28 11:04:39;;;;;;;7.28;1.90;;;8.80;99.90;;;;;;6163941;23;20036;-85
2023/03/28 11:07:13;;;;;;;6.25;2.20;;;8.80;99.90;;;;;;6199614;23;20032;-89
2023/03/28 11:09:45;;;;;;;9.65;2.40;;;8.60;99.90;;;;;;6205404;23;20013;-88
2023/03/28 11:12:37;;;;;;;8.13;2.50;;;8.50;99.90;;;;;;6201769;23;20021;-90
2023/03/28 11:15:09;;;;;;;;;;;8.60;99.90;;;;;;6202302;23;20020;-88
2023/03/28 11:17:35;;;;;;;7.22;2.30;;;8.70;99.90;;;;;;6187219;23;20282;-89
2023/03/28 11:20:19;;;;;;;8.82;2.58;;;8.70;99.90;;;;;;6156380;23;20467;-89
2023/03/28 11:23:14;;;;;;;6.88;2.50;;;8.80;99.90;;;;;;6155554;23;20017;-91
2023/03/28 11:25:45;;;;;;;8.35;2.42;;;8.90;99.90;;;;;;6157186;23;20017;-86
2023/03/28 11:28:27;;;;;;;;;;;9.00;99.90;;;;;;6130345;23;20113;-85
2023/03/28 11:30:55;;;;;;;;;;;9.10;99.90;;;;;;6182171;23;19912;-86
2023/03/28 11:33:33;;;;;;;7.18;2.50;;;8.90;99.90;;;;;;6155637;23;19916;-90
2023/03/28 11:36:09;;;;;;;6.65;2.35;;;8.80;99.90;;;;;;6181982;23;20016;-85
2023/03/28 11:38:43;;;;;;;8.73;2.30;;;8.80;99.90;;;;;;6155799;23;20013;-86
2023/03/28 11:41:17;;;;;;;7.22;2.47;;;8.80;99.90;;;;;;6182051;23;20080;-87
2023/03/28 11:43:57;;;;;;;7.70;2.55;;;8.70;99.90;;;;;;6181522;23;20024;-86
2023/03/28 11:46:39;;;;;;;9.73;3.08;;;8.50;99.90;;;;;;6182648;23;20013;-87
2023/03/28 11:49:11;;;;;;;6.78;2.30;;;8.50;99.90;;;;;;6180904;23;20025;-86
2023/03/28 11:51:58;;;;;;;9.57;2.85;;;8.60;99.90;;;;;;6155897;23;20017;-87
2023/03/28 11:54:31;;;;;;;9.70;3.20;;;8.70;99.90;;;;;;6154492;23;20283;-92
2023/03/28 11:57:06;;;;;;;8.65;2.75;;;8.90;99.90;;;;;;6182123;23;20012;-92
2023/03/28 11:59:37;;;;;;;7.35;2.50;;;9.00;99.90;;;;;;6151898;23;20023;-86
2023/03/28 12:02:33;;;;;;;6.65;2.45;;;9.10;99.90;;;;;;6180475;23;20018;-86
2023/03/28 12:05:22;;;;;;;6.63;2.10;;;9.30;99.90;;;;;;6154506;23;20013;-89
2023/03/28 12:08:06;;;;;;;6.05;2.03;;;9.30;99.90;;;;;;6154127;23;20013;-86
2023/03/28 12:10:35;;;;;;;8.07;2.55;;;9.10;99.90;;;;;;6181028;23;20101;-84
2023/03/28 12:13:24;;;;;;;6.70;2.80;;;9.10;99.90;;;;;;6153654;23;20137;-82
2023/03/28 12:16:27;;;;;;;6.63;2.20;;;9.10;99.90;;;;;;6156274;23;20021;-83
2023/03/28 12:19:00;;;;;;;6.05;2.20;;;9.00;99.90;;;;;;6167916;23;20079;-83
2023/03/28 12:21:58;;;;;;;8.75;2.55;;;9.10;99.90;;;;;;6182340;23;20412;-83
2023/03/28 12:24:36;;;;;;;8.50;2.58;;;9.20;99.90;;;;;;6154730;23;20009;-83
2023/03/28 12:27:25;;;;;;;7.70;2.78;;;9.40;99.90;;;;;;6155365;23;20043;-83
2023/03/28 12:30:04;;;;;;;6.88;2.53;;;9.50;99.90;;;;;;6182366;23;20308;-82
2023/03/28 12:32:49;;;;;;;7.70;2.95;;;9.50;99.90;;;;;;6182987;23;20095;-82
2023/03/28 12:35:35;;;;;;;7.18;2.72;;;9.50;99.90;;;;;;6155565;23;20013;-82
2023/03/28 12:38:13;;;;;;;8.18;2.67;;;9.50;99.90;;;;;;6156199;23;20043;-82
2023/03/28 12:41:02;;;;;;;10.35;3.40;;;9.50;99.90;;;;;;6156790;23;20047;-82
2023/03/28 12:43:54;;;;;;;9.57;2.92;;;9.50;99.90;;;;;;6182167;23;20017;-81
2023/03/28 12:46:22;;;;;;;;;;;9.60;99.90;;;;;;6183228;23;20044;-81
2023/03/28 12:48:59;;;;;;;10.27;2.90;;;9.60;99.90;;;;;;6156068;23;19970;-81
2023/03/28 12:51:37;;;;;;;7.50;2.90;;;9.60;99.90;;;;;;6182835;23;20055;-83
2023/03/28 12:54:14;;;;;;;7.30;2.72;;;9.60;99.90;;;;;;6155773;23;20024;-82
2023/03/28 12:56:40;;;;;;;10.15;2.88;;;9.50;99.90;;;;;;6155289;23;20063;-82
2023/03/28 12:59:37;;;;;;;8.88;3.13;;;9.40;99.90;;;;;;6154425;23;20016;-82
2023/03/28 13:02:43;;;;;;;8.13;2.88;;;9.40;99.90;;;;;;6156336;23;20438;-81
2023/03/28 13:05:26;;;;;;;7.82;2.90;;;9.30;99.90;;;;;;6181960;23;20187;-82
2023/03/28 13:08:13;;;;;;;8.23;2.67;;;9.40;99.90;;;;;;6182813;23;20082;-82
2023/03/28 13:11:12;;;;;;;8.45;3.15;;;9.40;99.90;;;;;;6155514;23;20346;-81
2023/03/28 13:14:29;;;;;;;7.70;3.10;;;9.40;99.90;;;;;;6182469;23;20095;-81
2023/03/28 13:16:58;;;;;;;7.13;3.00;;;9.40;99.90;;;;;;6067487;23;20053;-81
2023/03/28 13:19:42;;;;;;;10.07;3.03;;;9.40;99.90;;;;;;6087424;23;20269;-82
2023/03/28 13:22:28;;;;;;;7.75;3.35;;;9.40;99.90;;;;;;6088328;23;20460;-81
2023/03/28 13:25:33;;;;;;;9.02;3.08;;;9.30;99.90;;;;;;6088054;23;20014;-82